createdAt,value
2018-06-13T00:00:09.890Z,87.20
2018-06-13T00:02:38.203Z,87.70
2018-06-13T00:05:07.701Z,88.08
2018-06-13T00:07:35.997Z,87.63
2018-06-13T00:10:04.367Z,88.21
2018-06-13T00:12:32.653Z,87.95
2018-06-13T00:15:02.985Z,87.40
2018-06-13T00:17:31.269Z,87.78
2018-06-13T00:19:59.585Z,86.94
2018-06-13T00:22:28.991Z,86.88
2018-06-13T00:24:57.325Z,86.56
2018-06-13T00:27:25.689Z,86.27
2018-06-13T00:29:54.052Z,85.93
2018-06-13T00:32:22.349Z,85.47
2018-06-13T00:34:50.710Z,85.44
2018-06-13T00:37:19.031Z,85.01
2018-06-13T00:39:47.409Z,85.67
2018-06-13T00:42:15.746Z,86.56
2018-06-13T00:44:44.121Z,86.50
2018-06-13T00:47:12.461Z,86.27
2018-06-13T00:49:40.853Z,86.20
2018-06-13T00:52:09.155Z,86.18
2018-06-13T00:54:37.440Z,87.01
2018-06-13T00:57:05.757Z,86.87
2018-06-13T00:59:34.076Z,85.94
2018-06-13T01:02:05.517Z,86.46
2018-06-13T01:04:33.862Z,86.35
2018-06-13T01:07:02.214Z,86.61
2018-06-13T01:09:30.521Z,87.06
2018-06-13T01:11:58.942Z,87.15
2018-06-13T01:14:27.278Z,86.63
2018-06-13T01:16:55.990Z,86.43
2018-06-13T01:19:24.296Z,86.41
2018-06-13T01:21:53.705Z,86.41
2018-06-13T01:24:22.020Z,86.46
2018-06-13T01:26:50.373Z,85.83
2018-06-13T01:29:18.666Z,85.63
2018-06-13T01:31:47.014Z,85.44
2018-06-13T01:34:16.777Z,84.47
2018-06-13T01:36:45.070Z,85.44
2018-06-13T01:39:13.377Z,85.17
2018-06-13T01:41:41.773Z,84.85
2018-06-13T01:44:10.085Z,83.90
2018-06-13T01:46:38.363Z,84.47
2018-06-13T01:49:06.707Z,85.09
2018-06-13T01:51:34.957Z,85.03
2018-06-13T01:54:03.278Z,83.91
2018-06-13T01:56:31.565Z,84.82
2018-06-13T01:58:59.901Z,84.91
2018-06-13T02:01:28.204Z,84.88
2018-06-13T02:03:56.546Z,84.40
2018-06-13T02:06:24.849Z,83.83
2018-06-13T02:08:53.173Z,83.90
2018-06-13T02:11:21.514Z,83.53
2018-06-13T02:13:49.873Z,82.86
2018-06-13T02:16:19.286Z,83.36
2018-06-13T02:18:47.601Z,83.30
2018-06-13T02:21:15.922Z,83.73
2018-06-13T02:23:45.205Z,83.48
2018-06-13T02:26:14.651Z,84.89
2018-06-13T02:28:42.951Z,85.45
2018-06-13T02:31:11.290Z,84.84
2018-06-13T02:33:39.587Z,84.44
2018-06-13T02:36:10.047Z,83.32
2018-06-13T02:38:38.342Z,83.61
2018-06-13T02:41:06.713Z,82.37
2018-06-13T02:43:35.037Z,83.50
2018-06-13T02:46:03.359Z,82.71
2018-06-13T02:48:31.641Z,82.67
2018-06-13T02:51:01.141Z,82.32
2018-06-13T02:53:29.417Z,82.02
2018-06-13T02:55:57.753Z,80.75
2018-06-13T02:58:26.111Z,80.86
2018-06-13T03:00:54.384Z,79.56
2018-06-13T03:03:22.712Z,79.63
2018-06-13T03:05:50.998Z,79.62
2018-06-13T03:08:19.314Z,79.15
2018-06-13T03:10:47.617Z,79.86
2018-06-13T03:13:15.958Z,78.96
2018-06-13T03:15:44.233Z,78.99
2018-06-13T03:18:12.593Z,77.47
2018-06-13T03:20:40.885Z,77.67
2018-06-13T03:23:09.217Z,77.57
2018-06-13T03:25:38.577Z,77.25
2018-06-13T03:28:06.982Z,75.55
2018-06-13T03:30:35.268Z,76.23
2018-06-13T03:33:03.601Z,76.04
2018-06-13T03:35:31.898Z,76.00
2018-06-13T03:38:00.214Z,75.44
2018-06-13T03:40:29.557Z,74.35
2018-06-13T03:42:57.885Z,73.96
2018-06-13T03:45:26.166Z,73.88
2018-06-13T03:47:54.465Z,73.72
2018-06-13T03:50:22.779Z,72.53
2018-06-13T03:52:51.094Z,72.29
2018-06-13T03:55:19.412Z,72.29
2018-06-13T03:57:47.701Z,71.88
2018-06-13T04:00:16.025Z,71.97
2018-06-13T04:02:45.386Z,73.17
2018-06-13T04:05:13.704Z,73.23
2018-06-13T04:07:42.006Z,73.19
2018-06-13T04:10:10.321Z,72.68
2018-06-13T04:12:38.625Z,73.68
2018-06-13T04:15:06.957Z,73.89
2018-06-13T04:17:35.292Z,73.03
2018-06-13T04:20:03.696Z,72.81
2018-06-13T04:22:31.973Z,72.01
2018-06-13T04:25:00.289Z,70.90
2018-06-13T04:27:28.693Z,71.75
2018-06-13T04:29:56.994Z,72.82
2018-06-13T04:32:25.313Z,72.71
2018-06-13T04:34:53.589Z,71.78
2018-06-13T04:37:21.933Z,71.24
2018-06-13T04:39:50.244Z,69.69
2018-06-13T04:42:18.575Z,69.45
2018-06-13T04:44:46.854Z,68.60
2018-06-13T04:47:15.174Z,68.54
2018-06-13T04:49:43.448Z,68.83
2018-06-13T04:52:12.857Z,69.45
2018-06-13T04:54:41.158Z,69.36
2018-06-13T04:57:11.626Z,68.50
2018-06-13T04:59:39.889Z,67.38
2018-06-13T05:02:08.169Z,67.66
2018-06-13T05:04:36.428Z,67.89
2018-06-13T05:07:04.700Z,67.24
2018-06-13T05:09:32.985Z,66.68
2018-06-13T05:12:01.273Z,67.22
2018-06-13T05:14:29.525Z,66.99
2018-06-13T05:16:57.821Z,67.46
2018-06-13T05:19:26.077Z,66.56
2018-06-13T05:21:54.325Z,65.91
2018-06-13T05:24:22.613Z,64.82
2018-06-13T05:26:50.901Z,64.26
2018-06-13T05:29:19.185Z,65.55
2018-06-13T05:31:47.461Z,65.12
2018-06-13T05:34:15.749Z,64.08
2018-06-13T05:36:44.001Z,64.05
2018-06-13T05:39:12.289Z,65.87
2018-06-13T05:41:40.797Z,64.50
2018-06-13T05:44:09.100Z,62.40
2018-06-13T05:46:37.541Z,62.94
2018-06-13T05:49:05.829Z,63.24
2018-06-13T05:51:34.121Z,62.57
2018-06-13T05:54:02.412Z,60.35
2018-06-13T05:56:30.670Z,59.19
2018-06-13T05:58:58.943Z,59.63
2018-06-13T06:01:27.243Z,59.70
2018-06-13T06:03:55.496Z,59.58
2018-06-13T06:06:24.798Z,59.62
2018-06-13T06:08:53.069Z,58.96
2018-06-13T06:11:21.402Z,59.03
2018-06-13T06:13:49.671Z,58.00
2018-06-13T06:16:17.945Z,58.55
2018-06-13T06:18:46.252Z,57.73
2018-06-13T06:21:14.534Z,57.86
2018-06-13T06:23:42.829Z,58.01
2018-06-13T06:26:11.122Z,57.72
2018-06-13T06:28:39.396Z,59.32
2018-06-13T06:31:07.748Z,60.12
2018-06-13T06:33:36.041Z,59.79
2018-06-13T06:36:05.347Z,58.87
2018-06-13T06:38:33.599Z,60.42
2018-06-13T06:41:02.918Z,61.00
2018-06-13T06:43:31.226Z,61.25
2018-06-13T06:45:59.509Z,61.24
2018-06-13T06:48:27.778Z,60.64
2018-06-13T06:50:56.077Z,60.45
2018-06-13T06:53:24.491Z,61.23
2018-06-13T06:55:52.791Z,59.44
2018-06-13T06:58:21.157Z,59.62
2018-06-13T07:00:49.442Z,58.68
2018-06-13T07:03:17.770Z,58.49
2018-06-13T07:05:46.041Z,57.76
2018-06-13T07:08:14.358Z,57.61
2018-06-13T07:10:42.645Z,56.33
2018-06-13T07:13:14.678Z,57.30
2018-06-13T07:15:44.005Z,57.01
2018-06-13T07:18:12.333Z,57.21
2018-06-13T07:20:41.656Z,57.65
2018-06-13T07:23:11.101Z,57.42
2018-06-13T07:25:39.365Z,56.95
2018-06-13T07:28:07.688Z,56.50
2018-06-13T07:30:37.023Z,55.37
2018-06-13T07:33:07.365Z,55.61
2018-06-13T07:35:35.631Z,54.77
2018-06-13T07:38:03.965Z,54.37
2018-06-13T07:40:32.213Z,52.57
2018-06-13T07:43:00.517Z,52.34
2018-06-13T07:45:28.797Z,51.30
2018-06-13T07:47:57.088Z,49.00
2018-06-13T07:50:25.334Z,47.99
2018-06-13T07:52:54.149Z,49.68
2018-06-13T07:55:23.478Z,48.53
2018-06-13T07:57:51.710Z,48.52
2018-06-13T08:00:20.039Z,48.66
2018-06-13T08:02:48.309Z,51.21
2018-06-13T08:05:16.574Z,49.36
2018-06-13T08:07:45.153Z,47.26
2018-06-13T08:10:13.409Z,45.96
2018-06-13T08:12:41.657Z,45.79
2018-06-13T08:15:09.946Z,45.76
2018-06-13T08:17:38.225Z,44.01
2018-06-13T08:20:08.600Z,44.03
2018-06-13T08:22:36.853Z,44.66
2018-06-13T08:25:05.129Z,45.45
2018-06-13T08:27:33.402Z,44.61
2018-06-13T08:30:01.686Z,42.15
2018-06-13T08:32:29.946Z,40.77
2018-06-13T08:34:58.237Z,39.78
2018-06-13T08:37:26.510Z,39.73
2018-06-13T08:39:54.765Z,43.00
2018-06-13T08:42:26.473Z,43.32
2018-06-13T08:44:58.412Z,44.35
2018-06-13T08:47:26.685Z,45.25
2018-06-13T08:49:55.925Z,40.93
2018-06-13T08:52:24.201Z,40.77
2018-06-13T08:54:52.448Z,42.08
2018-06-13T08:57:20.733Z,42.47
2018-06-13T08:59:49.984Z,44.84
2018-06-13T09:02:18.271Z,46.41
2018-06-13T09:04:46.517Z,44.50
2018-06-13T09:07:14.789Z,45.42
2018-06-13T09:09:43.038Z,45.59
2018-06-13T09:12:12.416Z,46.23
2018-06-13T09:14:40.657Z,44.35
2018-06-13T09:17:08.927Z,41.17
2018-06-13T09:19:37.216Z,42.46
2018-06-13T09:22:05.481Z,44.21
2018-06-13T09:24:33.728Z,43.67
2018-06-13T09:27:02.057Z,42.96
2018-06-13T09:29:30.438Z,42.67
2018-06-13T09:31:58.691Z,42.64
2018-06-13T09:34:26.995Z,42.01
2018-06-13T09:36:55.233Z,41.85
2018-06-13T09:39:23.654Z,41.04
2018-06-13T09:41:57.101Z,41.18
2018-06-13T09:44:25.377Z,42.28
2018-06-13T09:46:54.705Z,42.14
2018-06-13T09:49:23.002Z,39.77
2018-06-13T09:51:51.249Z,39.53
2018-06-13T09:54:19.565Z,39.21
2018-06-13T09:56:47.964Z,39.85
2018-06-13T09:59:20.145Z,42.59
2018-06-13T10:01:53.336Z,41.07
2018-06-13T10:04:22.255Z,41.34
2018-06-13T10:06:50.569Z,40.38
2018-06-13T10:09:18.868Z,41.04
2018-06-13T10:11:47.194Z,40.61
2018-06-13T10:14:15.757Z,41.71
2018-06-13T10:16:45.082Z,41.63
2018-06-13T10:19:14.382Z,43.74
2018-06-13T10:21:43.460Z,43.12
2018-06-13T10:24:11.757Z,42.37
2018-06-13T10:26:40.130Z,40.63
2018-06-13T10:29:08.464Z,42.02
2018-06-13T10:31:36.910Z,41.38
2018-06-13T10:34:05.370Z,40.05
2018-06-13T10:36:33.695Z,39.71
2018-06-13T10:39:02.041Z,40.01
2018-06-13T10:41:30.310Z,41.01
2018-06-13T10:43:58.573Z,40.57
2018-06-13T10:46:26.868Z,36.74
2018-06-13T10:48:55.121Z,37.75
2018-06-13T10:51:23.422Z,39.42
2018-06-13T10:53:51.722Z,39.15
2018-06-13T10:56:20.070Z,39.54
2018-06-13T10:58:48.431Z,41.03
2018-06-13T11:01:16.717Z,41.94
2018-06-13T11:03:44.981Z,40.78
2018-06-13T11:06:13.249Z,41.01
2018-06-13T11:08:41.547Z,43.05
2018-06-13T11:11:09.811Z,42.79
2018-06-13T11:13:38.208Z,44.56
2018-06-13T11:16:06.531Z,44.57
2018-06-13T11:18:34.960Z,46.39
2018-06-13T11:21:03.213Z,46.32
2018-06-13T11:23:31.539Z,47.39
2018-06-13T11:25:59.889Z,46.40
2018-06-13T11:28:28.185Z,44.25
2018-06-13T11:30:56.430Z,40.93
2018-06-13T11:33:25.771Z,40.41
2018-06-13T11:35:54.032Z,40.90
2018-06-13T11:38:22.333Z,39.41
2018-06-13T11:40:50.586Z,41.38
2018-06-13T11:43:18.981Z,41.48
2018-06-13T11:45:47.254Z,40.34
2018-06-13T11:48:15.539Z,42.15
2018-06-13T11:50:43.813Z,45.10
2018-06-13T11:53:12.057Z,46.70
2018-06-13T11:55:40.359Z,48.44
2018-06-13T11:58:08.613Z,48.52
2018-06-13T12:00:36.905Z,48.28
2018-06-13T12:03:05.170Z,47.67
2018-06-13T12:05:33.449Z,46.76
2018-06-13T12:08:01.701Z,44.95
2018-06-13T12:10:29.982Z,42.60
2018-06-13T12:12:58.281Z,40.74
2018-06-13T12:15:26.605Z,43.90
2018-06-13T12:17:54.887Z,45.41
2018-06-13T12:20:23.158Z,44.99
2018-06-13T12:22:51.561Z,47.21
2018-06-13T12:25:19.977Z,47.45
2018-06-13T12:27:48.317Z,47.87
2018-06-13T12:30:16.569Z,46.56
2018-06-13T12:32:44.873Z,45.84
2018-06-13T12:35:13.120Z,44.02
2018-06-13T12:37:41.397Z,43.88
2018-06-13T12:40:09.668Z,44.08
2018-06-13T12:42:37.998Z,46.74
2018-06-13T12:45:06.266Z,47.25
2018-06-13T12:47:34.553Z,45.78
2018-06-13T12:50:03.051Z,46.07
2018-06-13T12:52:31.402Z,46.18
2018-06-13T12:54:59.799Z,44.77
2018-06-13T12:57:28.169Z,43.51
2018-06-13T12:59:57.456Z,43.31
2018-06-13T13:02:26.301Z,43.21
2018-06-13T13:04:54.549Z,42.49
2018-06-13T13:07:22.901Z,43.65
2018-06-13T13:09:51.205Z,44.54
2018-06-13T13:12:20.676Z,45.64
2018-06-13T13:14:48.969Z,44.32
2018-06-13T13:17:17.413Z,43.80
2018-06-13T13:19:45.730Z,44.30
2018-06-13T13:22:14.069Z,43.20
2018-06-13T13:24:42.377Z,42.70
2018-06-13T13:27:10.729Z,44.45
2018-06-13T13:29:39.028Z,46.03
2018-06-13T13:32:07.469Z,46.42
2018-06-13T13:34:35.788Z,47.88
2018-06-13T13:37:04.130Z,48.25
2018-06-13T13:39:32.539Z,48.02
2018-06-13T13:42:00.815Z,47.98
2018-06-13T13:44:29.053Z,46.13
2018-06-13T13:46:58.312Z,45.42
2018-06-13T13:49:26.737Z,46.03
2018-06-13T13:51:55.163Z,47.22
2018-06-13T13:54:23.489Z,46.89
2018-06-13T13:56:51.797Z,45.94
2018-06-13T13:59:20.055Z,43.67
2018-06-13T14:01:48.359Z,39.61
2018-06-13T14:04:16.603Z,33.22
2018-06-13T14:06:44.915Z,38.84
2018-06-13T14:09:13.259Z,42.79
2018-06-13T14:11:41.721Z,44.34
2018-06-13T14:14:09.997Z,43.95
2018-06-13T14:16:38.301Z,43.61
2018-06-13T14:19:06.561Z,44.44
2018-06-13T14:21:34.861Z,44.63
2018-06-13T14:24:03.100Z,45.82
2018-06-13T14:26:31.434Z,45.52
2018-06-13T14:28:59.773Z,46.04
2018-06-13T14:31:28.077Z,45.06
2018-06-13T14:33:56.457Z,45.29
2018-06-13T14:36:24.818Z,43.55
2018-06-13T14:38:53.113Z,42.77
2018-06-13T14:41:21.628Z,41.95
2018-06-13T14:43:50.221Z,41.34
2018-06-13T14:46:18.768Z,37.03
2018-06-13T14:48:47.064Z,38.46
2018-06-13T14:51:15.385Z,39.23
2018-06-13T14:53:43.661Z,41.22
2018-06-13T14:56:18.147Z,40.95
2018-06-13T14:58:46.485Z,41.43
2018-06-13T15:01:14.746Z,44.74
2018-06-13T15:03:43.037Z,45.40
2018-06-13T15:06:11.748Z,46.82
2018-06-13T15:08:40.024Z,44.33
2018-06-13T15:11:09.390Z,43.10
2018-06-13T15:13:37.664Z,37.85
2018-06-13T15:16:05.925Z,33.66
2018-06-13T15:18:34.238Z,32.46
2018-06-13T15:21:02.526Z,36.41
2018-06-13T15:23:30.801Z,40.85
2018-06-13T15:25:59.110Z,42.25
2018-06-13T15:28:27.411Z,41.95
2018-06-13T15:30:55.685Z,42.11
2018-06-13T15:33:24.305Z,43.51
2018-06-13T15:35:52.605Z,44.55
2018-06-13T15:38:20.869Z,44.04
2018-06-13T15:40:49.133Z,44.75
2018-06-13T15:43:17.369Z,44.81
2018-06-13T15:45:46.569Z,45.15
2018-06-13T15:48:14.820Z,43.77
2018-06-13T15:50:43.113Z,42.45
2018-06-13T15:53:11.356Z,41.54
2018-06-13T15:55:39.704Z,43.11
2018-06-13T15:58:07.993Z,44.78
2018-06-13T16:00:36.317Z,44.73
2018-06-13T16:03:05.925Z,45.21
2018-06-13T16:05:34.947Z,45.90
2018-06-13T16:08:03.237Z,46.27
2018-06-13T16:10:31.723Z,46.62
2018-06-13T16:12:59.990Z,45.83
2018-06-13T16:15:28.343Z,45.62
2018-06-13T16:17:56.627Z,44.95
2018-06-13T16:20:24.881Z,43.97
2018-06-13T16:22:53.160Z,44.46
2018-06-13T16:25:21.453Z,44.34
2018-06-13T16:27:49.759Z,44.45
2018-06-13T16:30:18.018Z,45.10
2018-06-13T16:32:46.306Z,45.39
2018-06-13T16:35:14.544Z,45.26
2018-06-13T16:37:42.843Z,45.96
2018-06-13T16:40:11.097Z,46.21
2018-06-13T16:42:39.401Z,46.63
2018-06-13T16:45:07.669Z,48.82
2018-06-13T16:47:35.975Z,48.93
2018-06-13T16:50:14.245Z,49.06
2018-06-13T16:52:54.201Z,48.16
2018-06-13T16:55:24.057Z,48.63
2018-06-13T16:57:52.632Z,48.06
2018-06-13T17:00:21.845Z,47.50
2018-06-13T17:02:50.715Z,48.35
2018-06-13T17:05:19.001Z,49.34
2018-06-13T17:07:47.775Z,50.53
2018-06-13T17:10:16.084Z,50.53
2018-06-13T17:12:44.336Z,50.54
2018-06-13T17:15:12.633Z,50.32
2018-06-13T17:17:40.869Z,49.62
2018-06-13T17:20:09.153Z,48.52
2018-06-13T17:22:44.036Z,49.26
2018-06-13T17:25:12.318Z,50.33
2018-06-13T17:27:40.607Z,51.83
2018-06-13T17:30:08.929Z,52.15
2018-06-13T17:32:37.189Z,50.98
2018-06-13T17:35:05.528Z,51.56
2018-06-13T17:37:33.777Z,51.55
2018-06-13T17:40:02.062Z,51.85
2018-06-13T17:42:30.307Z,52.39
2018-06-13T17:44:58.622Z,53.54
2018-06-13T17:47:26.883Z,53.02
2018-06-13T17:49:55.192Z,53.31
2018-06-13T17:52:23.473Z,53.38
2018-06-13T17:54:51.723Z,52.51
2018-06-13T17:57:20.025Z,49.88
2018-06-13T17:59:48.283Z,51.73
2018-06-13T18:02:16.570Z,51.09
2018-06-13T18:04:44.813Z,52.40
2018-06-13T18:07:13.137Z,52.52
2018-06-13T18:09:41.379Z,51.91
2018-06-13T18:12:09.657Z,51.83
2018-06-13T18:14:37.904Z,51.51
2018-06-13T18:17:06.244Z,51.23
2018-06-13T18:19:34.497Z,51.15
2018-06-13T18:22:02.780Z,50.00
2018-06-13T18:24:31.043Z,49.43
2018-06-13T18:26:59.379Z,49.93
2018-06-13T18:29:27.936Z,50.20
2018-06-13T18:31:56.201Z,51.35
2018-06-13T18:34:24.449Z,50.08
2018-06-13T18:36:52.881Z,49.90
2018-06-13T18:39:21.413Z,49.27
2018-06-13T18:41:49.667Z,49.89
2018-06-13T18:44:17.968Z,50.26
2018-06-13T18:46:46.251Z,50.43
2018-06-13T18:49:14.545Z,50.50
2018-06-13T18:51:42.815Z,50.64
2018-06-13T18:54:11.090Z,50.54
2018-06-13T18:56:39.345Z,51.01
2018-06-13T18:59:07.618Z,51.07
2018-06-13T19:01:35.857Z,51.59
2018-06-13T19:04:04.208Z,51.28
2018-06-13T19:06:32.423Z,51.04
2018-06-13T19:09:00.780Z,51.04
2018-06-13T19:11:29.116Z,50.40
2018-06-13T19:13:57.772Z,50.03
2018-06-13T19:16:26.160Z,49.84
2018-06-13T19:18:54.474Z,49.45
2018-06-13T19:21:23.772Z,48.95
2018-06-13T19:23:52.077Z,47.36
2018-06-13T19:26:20.542Z,48.26
2018-06-13T19:28:48.837Z,49.42
2018-06-13T19:31:17.301Z,49.75
2018-06-13T19:33:45.577Z,50.44
2018-06-13T19:36:13.937Z,51.43
2018-06-13T19:38:42.193Z,52.43
2018-06-13T19:41:10.461Z,52.86
2018-06-13T19:43:39.301Z,52.93
2018-06-13T19:46:08.013Z,53.35
2018-06-13T19:48:41.501Z,54.24
2018-06-13T19:51:09.765Z,54.84
2018-06-13T19:53:43.267Z,54.80
2018-06-13T19:56:12.495Z,55.36
2018-06-13T19:58:40.841Z,55.42
2018-06-13T20:01:09.165Z,54.84
2018-06-13T20:03:42.753Z,55.69
2018-06-13T20:06:11.553Z,56.25
2018-06-13T20:08:39.805Z,57.07
2018-06-13T20:11:08.147Z,56.88
2018-06-13T20:13:41.705Z,56.67
2018-06-13T20:16:15.354Z,56.80
2018-06-13T20:18:49.070Z,57.20
2018-06-13T20:21:17.417Z,57.20
2018-06-13T20:23:45.685Z,57.31
2018-06-13T20:26:19.249Z,57.38
2018-06-13T20:28:52.897Z,57.15
2018-06-13T20:31:25.358Z,57.27
2018-06-13T20:33:53.669Z,57.99
2018-06-13T20:36:21.936Z,58.49
2018-06-13T20:38:50.338Z,57.12
2018-06-13T20:41:18.596Z,56.77
2018-06-13T20:43:46.872Z,55.45
2018-06-13T20:46:15.134Z,54.96
2018-06-13T20:48:43.678Z,57.06
2018-06-13T20:51:12.053Z,58.47
2018-06-13T20:53:40.388Z,59.32
2018-06-13T20:56:08.689Z,59.90
2018-06-13T20:58:36.957Z,60.09
2018-06-13T21:01:05.542Z,60.70
2018-06-13T21:03:33.789Z,60.80
2018-06-13T21:06:02.065Z,61.19
2018-06-13T21:08:30.313Z,61.38
2018-06-13T21:10:58.587Z,62.15
2018-06-13T21:13:26.845Z,62.43
2018-06-13T21:15:55.140Z,62.61
2018-06-13T21:18:23.397Z,62.49
2018-06-13T21:20:51.682Z,62.39
2018-06-13T21:23:19.933Z,62.27
2018-06-13T21:25:48.217Z,62.10
2018-06-13T21:28:16.504Z,61.99
2018-06-13T21:30:44.769Z,62.11
2018-06-13T21:33:13.081Z,62.20
2018-06-13T21:35:41.453Z,62.20
2018-06-13T21:38:09.914Z,62.42
2018-06-13T21:40:38.359Z,62.51
2018-06-13T21:43:06.715Z,61.28
2018-06-13T21:45:35.109Z,61.26
2018-06-13T21:48:03.374Z,61.63
2018-06-13T21:50:31.615Z,60.99
2018-06-13T21:52:59.877Z,60.78
2018-06-13T21:55:28.158Z,62.19
2018-06-13T21:57:56.464Z,61.33
2018-06-13T22:00:25.621Z,61.62
2018-06-13T22:02:53.957Z,61.88
2018-06-13T22:05:22.210Z,61.68
2018-06-13T22:07:50.493Z,62.30
2018-06-13T22:10:18.758Z,63.12
2018-06-13T22:12:47.237Z,63.33
2018-06-13T22:15:20.629Z,63.48
2018-06-13T22:17:48.925Z,63.76
2018-06-13T22:20:17.187Z,63.71
2018-06-13T22:22:45.446Z,64.09
2018-06-13T22:25:13.722Z,64.48
2018-06-13T22:27:42.037Z,65.08
2018-06-13T22:30:10.379Z,65.62
2018-06-13T22:32:38.597Z,65.85
2018-06-13T22:35:06.926Z,66.22
2018-06-13T22:37:35.546Z,66.60
2018-06-13T22:40:03.940Z,66.39
2018-06-13T22:42:32.409Z,66.82
2018-06-13T22:45:00.686Z,67.06
2018-06-13T22:47:28.941Z,67.51
2018-06-13T22:49:57.257Z,67.89
2018-06-13T22:52:25.721Z,67.82
2018-06-13T22:54:54.249Z,67.30
2018-06-13T22:57:22.538Z,67.95
2018-06-13T22:59:50.797Z,67.08
2018-06-13T23:02:19.090Z,67.74
2018-06-13T23:04:47.383Z,68.32
2018-06-13T23:07:15.677Z,68.97
2018-06-13T23:09:43.945Z,69.24
2018-06-13T23:12:12.307Z,69.69
2018-06-13T23:14:40.555Z,69.81
2018-06-13T23:17:09.072Z,69.81
2018-06-13T23:31:00.678Z,70.86
2018-06-13T23:33:28.985Z,71.05
2018-06-13T23:35:57.268Z,71.08
2018-06-13T23:38:25.561Z,71.16
2018-06-13T23:40:53.856Z,70.29
2018-06-13T23:43:22.155Z,68.87
2018-06-13T23:45:50.425Z,68.09
2018-06-13T23:48:18.786Z,67.54
2018-06-13T23:50:47.086Z,66.94
2018-06-13T23:53:15.441Z,66.53
2018-06-13T23:55:43.746Z,66.54
2018-06-13T23:58:12.102Z,66.91
